METAR Data
IDs: Format: Raw Decoded Include TAF

Data at: 0213 UTC 10 Dec 2022

K77S 100155Z AUTO 18007KT 150V210 9SM FEW028 OVC036 08/06 A2958 RMK A01 P0003
K77S 100135Z AUTO 18009G16KT 10SM OVC036 08/05 A2958 RMK A01
K77S 100115Z AUTO 17008G15KT 9SM OVC036 08/05 A2960 RMK A01
K77S 100055Z AUTO 19008G16KT 150V230 10SM OVC037 08/05 A2961 RMK A01 P0001
K77S 100035Z AUTO 17009KT 150V230 9SM OVC038 08/05 A2961 RMK A01
K77S 100015Z AUTO 16009KT 140V210 10SM OVC037 08/04 A2963 RMK A01
K77S 092355Z AUTO 18010G18KT 10SM OVC038 08/04 A2964 RMK A01
K77S 092335Z AUTO 18009G17KT 130V200 9SM OVC037 08/04 A2965 RMK A01
K77S 092315Z AUTO VRB04G13KT 10SM BKN039 OVC046 08/04 A2966 RMK A01
K77S 092255Z AUTO 00000G10KT 10SM BKN040 BKN045 08/04 A2968 RMK A01
K77S 092235Z AUTO VRB04G19KT 10SM FEW031 BKN040 08/04 A2969 RMK A01
K77S 092215Z AUTO 16010G15KT 120V190 10SM FEW031 BKN040 BKN047 08/04 A2970 RMK A01
K77S 092155Z AUTO VRB05G10KT 10SM FEW025 SCT039 BKN047 08/03 A2972 RMK A01
K77S 092135Z AUTO 15009G15KT 090V170 9SM FEW025 SCT030 BKN038 09/03 A2974 RMK A01
K77S 092115Z AUTO VRB06G12KT 10SM FEW029 FEW038 BKN046 09/03 A2975 RMK A01
K77S 092055Z AUTO 00000G11KT 10SM BKN048 BKN060 09/03 A2977 RMK A01
K77S 092035Z AUTO 14005G12KT 10SM SCT050 SCT060 08/03 A2979 RMK A01
K77S 092015Z AUTO 16008G13KT 120V190 10SM SCT060 SCT120 08/03 A2982 RMK A01
K77S 091955Z AUTO 00000KT 10SM SCT060 SCT120 08/03 A2984 RMK A01
K77S 091935Z AUTO 00000KT 10SM BKN060 BKN090 07/04 A2986 RMK A01
K77S 091915Z AUTO 00000KT 10SM BKN060 BKN120 07/05 A2988 RMK A01
K77S 091855Z AUTO 08004KT 10SM FEW047 FEW120 06/05 A2991 RMK A01
K77S 091835Z AUTO 00000KT 10SM FEW032 FEW045 FEW085 06/05 A2993 RMK A01
K77S 091815Z AUTO 00000KT 10SM CLR 05/05 A2995 RMK A01
K77S 091755Z AUTO 00000KT 10SM CLR 05/05 A2996 RMK A01 P0001
K77S 091735Z AUTO 00000KT 10SM CLR 05/05 A2996 RMK A01
K77S 091715Z AUTO 00000KT 7SM FEW025 SCT031 SCT040 04/04 A2997 RMK A01
K77S 091655Z AUTO 00000KT 10SM BKN038 04/04 A2998 RMK A01
K77S 091635Z AUTO 00000KT 10SM FEW028 BKN036 OVC075 04/03 A2999 RMK A01
K77S 091615Z AUTO 00000KT 10SM FEW026 BKN036 OVC045 03/03 A2999 RMK A01
K77S 091555Z AUTO 00000KT 10SM FEW025 SCT043 BKN065 03/03 A3000 RMK A01
K77S 091535Z AUTO 00000KT 10SM FEW055 OVC075 03/02 A3000 RMK A01
K77S 091515Z AUTO 00000KT 10SM SCT039 BKN075 OVC095 03/03 A3001 RMK A01
K77S 091455Z AUTO 00000KT 10SM SCT039 OVC090 03/03 A3002 RMK A01
K77S 091435Z AUTO 00000KT 10SM FEW025 BKN039 OVC095 03/03 A3003 RMK A01
K77S 091415Z AUTO 00000KT 10SM FEW021 BKN036 OVC050 03/03 A3002 RMK A01
K77S 091355Z AUTO 00000G10KT 5SM BR FEW026 OVC035 03/03 A3002 RMK A01
K77S 091335Z AUTO 00000KT 10SM BKN036 BKN045 OVC060 03/03 A3002 RMK A01
K77S 091315Z AUTO 00000KT 10SM FEW029 BKN035 OVC055 03/02 A3002 RMK A01
K77S 091255Z AUTO 05003KT 10SM FEW029 BKN035 OVC075 03/03 A3002 RMK A01
K77S 091235Z AUTO 00000KT 10SM FEW026 SCT033 BKN055 04/03 A3003 RMK A01
K77S 091215Z AUTO 00000KT 10SM SCT026 BKN034 OVC070 03/03 A3004 RMK A01
K77S 091155Z AUTO 00000KT 10SM FEW027 BKN033 OVC070 03/03 A3004 RMK A01
K77S 091135Z AUTO 00000KT 10SM FEW026 SCT031 BKN036 03/03 A3005 RMK A01
K77S 091115Z AUTO 00000KT 10SM SCT034 BKN047 OVC065 04/04 A3005 RMK A01
K77S 091055Z AUTO 00000KT 10SM BKN031 BKN046 OVC070 04/03 A3006 RMK A01
K77S 091035Z AUTO 00000KT 10SM BKN031 BKN039 OVC070 03/03 A3006 RMK A01
K77S 091015Z AUTO 00000KT 10SM FEW026 BKN033 OVC070 03/03 A3006 RMK A01
K77S 090955Z AUTO 00000KT 10SM FEW029 SCT055 BKN070 04/04 A3007 RMK A01
K77S 090935Z AUTO 19007KT 10SM SCT049 BKN095 OVC120 04/03 A3007 RMK A01
K77S 090915Z AUTO 18006KT 10SM FEW030 SCT048 BKN055 04/04 A3007 RMK A01
K77S 090855Z AUTO 20005KT 10SM FEW028 SCT033 OVC055 04/04 A3008 RMK A01
K77S 090835Z AUTO 00000KT 10SM BKN029 BKN034 OVC060 04/03 A3008 RMK A01
K77S 090815Z AUTO 21005KT 10SM OVC029 04/04 A3007 RMK A01
K77S 090755Z AUTO 22007KT 10SM OVC027 05/04 A3008 RMK A01
K77S 090735Z AUTO 23004KT 10SM OVC027 04/04 A3008 RMK A01
K77S 090715Z AUTO 28005KT 10SM OVC027 04/04 A3007 RMK A01
K77S 090655Z AUTO 26006KT 10SM OVC031 04/04 A3007 RMK A01
K77S 090635Z AUTO 21008KT 10SM BKN030 BKN036 OVC080 04/04 A3006 RMK A01
K77S 090615Z AUTO 22008KT 10SM FEW034 SCT044 BKN055 04/04 A3006 RMK A01
K77S 090555Z AUTO 20007KT 04/04 A3006 RMK A01 P0001
K77S 090535Z AUTO 19008KT 8SM BKN031 BKN039 OVC065 04/04 A3005 RMK A01
K77S 090515Z AUTO 20006KT 9SM FEW015 SCT024 OVC033 04/04 A3006 RMK A01
K77S 090455Z AUTO 20006KT 8SM SCT015 BKN022 OVC030 04/04 A3005 RMK A01 P0002
K77S 090435Z AUTO 25003KT 7SM FEW005 SCT020 OVC029 04/04 A3005 RMK A01
K77S 090415Z AUTO 18003KT 6SM BR SCT005 BKN017 OVC034 04/04 A3005 RMK A01
K77S 090355Z AUTO 00000KT 9SM SCT019 BKN023 OVC031 03/03 A3004 RMK A01
K77S 090335Z AUTO 00000KT 10SM SCT024 OVC031 04/04 A3004 RMK A01
K77S 090315Z AUTO 00000KT 10SM BKN025 OVC031 04/04 A3004 RMK A01
K77S 090255Z AUTO 00000KT 10SM BKN028 OVC033 04/04 A3004 RMK A01
K77S 090235Z AUTO VRB05KT 10SM OVC029 04/04 A3004 RMK A01
K77S 090215Z AUTO 21004KT 10SM OVC030 04/04 A3004 RMK A01
K77S 090155Z AUTO 18004KT 10SM BKN031 OVC038 04/04 A3004 RMK A01
K77S 090135Z AUTO VRB04KT 10SM OVC035 04/03 A3003 RMK A01
K77S 090115Z AUTO 21005KT 10SM FEW024 BKN038 OVC048 04/03 A3004 RMK A01
K77S 090055Z AUTO 20006KT 10SM SCT025 BKN047 OVC065 04/03 A3003 RMK A01 P0002
K77S 090035Z AUTO 19004KT 8SM FEW005 BKN027 OVC060 04/04 A3002 RMK A01
K77S 090015Z AUTO 00000KT 5SM BR SCT005 BKN021 OVC026 04/04 A3003 RMK A01
K77S 082355Z AUTO 00000KT 5SM BR FEW005 BKN024 OVC029 04/04 A3002 RMK A01 P0002
K77S 082335Z AUTO 00000KT 4SM BR BKN028 OVC032 04/04 A3002 RMK A01
K77S 082315Z AUTO 00000KT 6SM BR FEW007 FEW019 BKN026 04/04 A3001 RMK A01
K77S 082255Z AUTO 00000KT 7SM SCT021 BKN030 04/04 A3001 RMK A01 P0005
K77S 082235Z AUTO 00000KT 7SM FEW015 SCT021 OVC029 04/03 A3001 RMK A01
K77S 082215Z AUTO 29004KT 7SM BKN013 BKN017 OVC029 04/04 A3001 RMK A01
K77S 082155Z AUTO 31004KT 5SM BR BKN012 BKN018 04/04 A3001 RMK A01 P0008
K77S 082135Z AUTO VRB03KT 3SM BR SCT012 BKN018 05/04 A3001 RMK A01
K77S 082115Z AUTO 23005KT 2 1/2SM BR FEW012 SCT017 BKN022 05/05 A3000 RMK A01
K77S 082055Z AUTO 22004KT 4SM BR OVC022 05/05 A3000 RMK A01 P0006
K77S 082035Z AUTO 00000KT 3SM BR FEW015 BKN023 BKN029 05/05 A3001 RMK A01
K77S 082015Z AUTO 00000KT 5SM BR SCT015 BKN025 BKN036 05/05 A3001 RMK A01
K77S 081955Z AUTO 23005KT 4SM BR SCT029 06/05 A3001 RMK A01 P0011
K77S 081935Z AUTO 23007KT 5SM BR SCT028 SCT032 06/05 A3002 RMK A01
K77S 081915Z AUTO 21006KT 6SM BR FEW019 SCT027 06/06 A3002 RMK A01
K77S 081855Z AUTO 22006KT 6SM BR SCT027 SCT032 06/06 A3003 RMK A01 P0010
K77S 081835Z AUTO 21006KT 6SM BR BKN029 06/06 A3003 RMK A01
K77S 081815Z AUTO 22007KT 6SM BR BKN026 BKN031 06/06 A3004 RMK A01
K77S 081755Z AUTO 21006KT 5SM BR OVC027 07/06 A3003 RMK A01 P0007
K77S 081735Z AUTO 00000KT 5SM BR OVC027 06/06 A3003 RMK A01
K77S 081715Z AUTO 00000KT 5SM BR BKN027 OVC032 06/06 A3003 RMK A01
K77S 081655Z AUTO 28003KT 4SM BR FEW024 OVC032 06/06 A3001 RMK A01 P0005
K77S 081635Z AUTO 00000KT 4SM BR OVC033 06/06 A3001 RMK A01
K77S 081615Z AUTO 00000KT 7SM OVC035 06/06 A3000 RMK A01
K77S 081555Z AUTO 00000KT 8SM OVC036 07/06 A3000 RMK A01 P0001
K77S 081535Z AUTO 27004KT 10SM OVC037 07/06 A3000 RMK A01
K77S 081515Z AUTO 00000KT 10SM OVC035 07/05 A2999 RMK A01
K77S 081455Z AUTO 00000KT 10SM OVC035 08/04 A3000 RMK A01
K77S 081435Z AUTO VRB06KT 10SM OVC033 09/03 A3000 RMK A01
K77S 081415Z AUTO 18012G20KT 10SM BKN034 BKN040 OVC050 09/03 A3000 RMK A01